Time;durP1;ratioP1;P1;durP2;ratioP2;P2;SDS_P1;SDS_P2;PMS_P1;PMS_P2;Temp;Humidity;BMP_temperature;BMP_pressure;BME280_temperature;BME280_humidity;BME280_pressure;Samples;Min_cycle;Max_cycle;Signal;HPM_P1;HPM_P2
2021/08/16 00:01:07;;;;;;;18.20;4.75;;;;;;;24.85;56.43;100848.72;5115170;27;20048;-72
2021/08/16 00:03:35;;;;;;;9.88;3.90;;;;;;;24.84;56.57;100841.56;5114857;27;20395;-72
2021/08/16 00:06:05;;;;;;;11.13;4.55;;;;;;;24.90;56.27;100842.22;5115295;27;20384;-72
2021/08/16 00:08:32;;;;;;;10.07;4.20;;;;;;;24.93;56.04;100844.78;5115409;28;20032;-71
2021/08/16 00:11:03;;;;;;;12.23;4.30;;;;;;;24.88;56.11;100844.06;5115063;28;20032;-72
2021/08/16 00:13:31;;;;;;;10.30;4.32;;;;;;;24.86;56.43;100843.25;5115056;27;20081;-71
2021/08/16 00:15:59;;;;;;;14.23;4.45;;;;;;;24.89;56.60;100844.94;5114833;28;20035;-71
2021/08/16 00:18:26;;;;;;;11.07;5.30;;;;;;;24.77;56.61;100830.13;5114757;28;20036;-71
2021/08/16 00:20:53;;;;;;;8.10;3.95;;;;;;;24.61;57.12;100832.56;5114817;28;20379;-70
2021/08/16 00:23:22;;;;;;;11.25;4.18;;;;;;;24.39;57.71;100822.72;5115484;28;20042;-72
2021/08/16 00:25:50;;;;;;;9.93;4.18;;;;;;;24.36;57.71;100831.81;5112820;27;20036;-72
2021/08/16 00:28:17;;;;;;;12.30;4.28;;;;;;;24.44;57.63;100831.53;5115015;28;20040;-72
2021/08/16 00:30:44;;;;;;;12.13;3.80;;;;;;;24.42;57.55;100831.56;5114838;27;20051;-72
2021/08/16 00:33:12;;;;;;;14.27;3.78;;;;;;;24.51;57.41;100823.13;5114589;27;20047;-73
2021/08/16 00:35:39;;;;;;;14.98;4.57;;;;;;;24.55;57.19;100819.34;5114522;27;20387;-72
2021/08/16 00:38:07;;;;;;;11.70;4.40;;;;;;;24.51;57.27;100825.81;5111753;27;20075;-72
2021/08/16 00:40:36;;;;;;;11.68;4.18;;;;;;;24.54;57.69;100824.81;5114718;28;20047;-73
2021/08/16 00:43:03;;;;;;;11.20;4.22;;;;;;;24.57;57.51;100813.88;5114505;28;20043;-72
2021/08/16 00:45:31;;;;;;;7.15;4.10;;;;;;;24.59;57.55;100820.97;5114186;28;20036;-71
2021/08/16 00:47:59;;;;;;;10.23;4.10;;;;;;;24.58;57.79;100821.03;5114021;28;20038;-72
2021/08/16 00:50:27;;;;;;;10.60;4.45;;;;;;;24.45;57.82;100817.97;5114132;28;20038;-72
2021/08/16 00:52:56;;;;;;;12.35;4.47;;;;;;;24.36;58.05;100817.44;5113941;27;20047;-71
2021/08/16 00:55:25;;;;;;;11.07;4.25;;;;;;;24.37;58.04;100825.50;5111302;28;20372;-69
2021/08/16 00:57:57;;;;;;;11.73;3.80;;;;;;;24.27;58.36;100821.41;5113984;28;20043;-72
2021/08/16 01:00:25;;;;;;;10.18;4.38;;;;;;;24.25;58.53;100831.38;5113353;28;20479;-71
2021/08/16 01:02:54;;;;;;;14.73;4.95;;;;;;;24.29;58.37;100819.50;5113781;27;20055;-72
2021/08/16 01:05:22;;;;;;;14.38;4.32;;;;;;;24.29;58.40;100818.63;5113684;27;20038;-72
2021/08/16 01:07:50;;;;;;;12.05;4.47;;;;;;;24.29;58.39;100821.31;5113748;28;20422;-72
2021/08/16 01:10:19;;;;;;;9.63;4.05;;;;;;;24.33;58.29;100823.88;5113816;28;20058;-73
2021/08/16 01:12:47;;;;;;;9.30;4.22;;;;;;;24.27;58.63;100817.84;5113929;28;20046;-73
2021/08/16 01:15:17;;;;;;;10.07;4.20;;;;;;;24.28;58.82;100823.19;5113615;28;20044;-72
2021/08/16 01:17:45;;;;;;;8.23;3.95;;;;;;;24.25;58.70;100817.88;5113943;27;20070;-72
2021/08/16 01:20:15;;;;;;;10.95;4.53;;;;;;;24.22;58.66;100818.00;5114057;28;20040;-73
2021/08/16 01:23:01;;;;;;;14.00;4.07;;;;;;;24.21;58.50;100816.25;5113350;28;20050;-71
2021/08/16 01:25:28;;;;;;;7.65;3.63;;;;;;;24.13;58.49;100815.66;5113769;28;20050;-72
2021/08/16 01:27:58;;;;;;;9.10;4.18;;;;;;;24.10;58.32;100810.34;5112739;28;20048;-71
2021/08/16 01:30:25;;;;;;;12.25;5.18;;;;;;;24.03;58.39;100820.50;5113330;27;20085;-71
2021/08/16 01:32:53;;;;;;;11.10;4.18;;;;;;;23.90;58.66;100816.53;5113371;28;20035;-72
2021/08/16 01:35:22;;;;;;;14.65;4.13;;;;;;;23.82;59.32;100818.66;5113470;27;20051;-72
2021/08/16 01:37:50;;;;;;;9.35;4.30;;;;;;;23.86;59.12;100817.59;5113558;27;20119;-72
2021/08/16 01:40:17;;;;;;;11.95;4.25;;;;;;;23.89;58.73;100814.78;5113729;27;20039;-72
2021/08/16 01:43:03;;;;;;;13.05;4.47;;;;;;;23.84;58.91;100809.56;5112729;27;20063;-72
2021/08/16 01:45:31;;;;;;;15.25;4.95;;;;;;;23.74;59.02;100813.56;5113199;28;20042;-71
2021/08/16 01:47:59;;;;;;;9.15;4.05;;;;;;;23.59;59.51;100819.50;5113287;27;20100;-72
2021/08/16 01:50:26;;;;;;;10.98;4.43;;;;;;;23.54;59.55;100816.13;5113306;27;20036;-71
2021/08/16 01:53:14;;;;;;;11.82;4.72;;;;;;;23.49;59.71;100822.63;5109012;28;20040;-72
2021/08/16 01:55:42;;;;;;;11.48;4.20;;;;;;;23.52;59.54;100812.59;5111586;28;20036;-72
2021/08/16 01:58:11;;;;;;;10.43;4.38;;;;;;;23.49;59.66;100812.72;5113166;27;20059;-72
2021/08/16 02:00:39;;;;;;;11.93;4.30;;;;;;;23.51;59.62;100810.81;5113188;27;20463;-72
2021/08/16 02:03:07;;;;;;;16.50;4.68;;;;;;;23.36;60.09;100808.69;5112332;27;20047;-72
2021/08/16 02:05:34;;;;;;;10.88;3.92;;;;;;;23.35;60.16;100805.09;5112890;28;20035;-72
2021/08/16 02:08:02;;;;;;;13.50;4.50;;;;;;;23.39;59.88;100805.84;5112712;27;20047;-71
2021/08/16 02:10:31;;;;;;;12.05;4.75;;;;;;;23.40;59.70;100810.31;5112229;27;20043;-72
2021/08/16 02:12:59;;;;;;;11.98;4.38;;;;;;;23.39;59.74;100813.94;5112827;27;20479;-72
2021/08/16 02:15:28;;;;;;;12.20;4.57;;;;;;;23.37;59.94;100808.59;5111157;28;20039;-69
2021/08/16 02:17:56;;;;;;;9.00;4.18;;;;;;;23.36;60.09;100804.16;5110962;28;20035;-70
2021/08/16 02:20:23;;;;;;;11.40;4.07;;;;;;;23.26;60.24;100807.22;5113255;28;20040;-72
2021/08/16 02:22:51;;;;;;;14.48;4.22;;;;;;;23.13;60.71;100806.78;5111226;28;20079;-71
2021/08/16 02:25:18;;;;;;;11.75;4.15;;;;;;;23.09;61.03;100807.84;5112481;27;20384;-71
2021/08/16 02:27:47;;;;;;;11.43;4.13;;;;;;;23.20;60.92;100804.75;5112635;28;20054;-72
2021/08/16 02:30:16;;;;;;;9.35;3.88;;;;;;;23.23;60.57;100810.06;5112514;27;20043;-72
2021/08/16 02:32:45;;;;;;;10.77;4.40;;;;;;;23.22;60.69;100810.97;5112489;28;20050;-72
2021/08/16 02:35:14;;;;;;;11.70;4.28;;;;;;;23.23;60.61;100805.53;5111921;27;20032;-71
2021/08/16 02:37:42;;;;;;;12.18;4.00;;;;;;;23.27;60.50;100807.19;5111882;28;20044;-71
2021/08/16 02:40:12;;;;;;;8.98;3.65;;;;;;;23.19;60.84;100817.34;5112041;28;20395;-72
2021/08/16 02:42:39;;;;;;;11.48;3.88;;;;;;;23.21;60.75;100811.91;5112212;28;20038;-72
2021/08/16 02:45:08;;;;;;;10.35;4.47;;;;;;;23.25;60.62;100818.94;5112043;28;20377;-72
2021/08/16 02:47:36;;;;;;;9.77;4.10;;;;;;;23.31;60.54;100810.63;5111331;28;20479;-71
2021/08/16 02:50:06;;;;;;;13.05;4.28;;;;;;;23.38;60.35;100822.94;5111941;28;20064;-71
2021/08/16 02:52:34;;;;;;;12.95;4.32;;;;;;;23.25;60.59;100818.94;5112247;28;20046;-72
2021/08/16 02:55:01;;;;;;;11.82;4.03;;;;;;;23.11;60.93;100818.53;5110333;28;20047;-72
2021/08/16 02:57:29;;;;;;;16.10;3.63;;;;;;;23.13;61.01;100812.19;5111725;28;20047;-70
2021/08/16 02:59:57;;;;;;;12.18;4.05;;;;;;;23.26;60.81;100826.09;5111542;28;20044;-69
2021/08/16 03:02:24;;;;;;;13.15;4.45;;;;;;;23.30;60.72;100816.97;5112097;28;20036;-72
2021/08/16 03:05:14;;;;;;;9.68;3.70;;;;;;;23.41;60.53;100822.84;5111021;28;20043;-72
2021/08/16 03:07:41;;;;;;;8.60;3.80;;;;;;;23.45;60.48;100813.72;5111761;28;20031;-72
2021/08/16 03:10:10;;;;;;;12.52;5.00;;;;;;;23.43;60.32;100816.44;5111791;28;20047;-71
2021/08/16 03:12:37;;;;;;;13.05;3.83;;;;;;;23.47;60.23;100819.06;5111694;28;20028;-71
2021/08/16 03:15:25;;;;;;;11.48;4.32;;;;;;;23.47;60.30;100822.66;5103949;28;20046;-71
2021/08/16 03:17:52;;;;;;;9.20;3.80;;;;;;;23.50;60.15;100827.06;5111491;28;20047;-72
2021/08/16 03:20:21;;;;;;;8.98;3.95;;;;;;;23.36;60.39;100824.84;5111514;28;20043;-71
2021/08/16 03:22:48;;;;;;;7.82;3.65;;;;;;;23.31;60.57;100824.09;5108560;28;20043;-71
2021/08/16 03:25:16;;;;;;;11.25;3.38;;;;;;;23.37;60.59;100824.75;5110317;28;20050;-72
2021/08/16 03:27:43;;;;;;;12.02;3.70;;;;;;;23.41;60.50;100822.84;5115075;28;20047;-72
2021/08/16 03:30:14;;;;;;;8.88;3.60;;;;;;;23.44;60.40;100825.41;5116062;27;20050;-71
2021/08/16 03:32:41;;;;;;;9.90;3.58;;;;;;;23.46;60.30;100823.56;5115993;27;20386;-71
2021/08/16 03:35:09;;;;;;;7.43;3.60;;;;;;;23.50;60.30;100825.22;5115664;27;20077;-72
2021/08/16 03:37:38;;;;;;;10.18;3.55;;;;;;;23.51;60.48;100831.50;5114838;28;20035;-72
2021/08/16 03:40:07;;;;;;;13.00;3.50;;;;;;;23.43;60.46;100831.78;5115755;28;20046;-72
2021/08/16 03:42:35;;;;;;;12.38;3.80;;;;;;;23.46;60.53;100828.94;5115113;27;20044;-72
2021/08/16 03:45:04;;;;;;;10.05;3.60;;;;;;;23.55;60.29;100827.78;5115581;27;20036;-71
2021/08/16 03:47:51;;;;;;;13.25;4.40;;;;;;;23.54;60.17;100831.41;5113707;27;20054;-71
2021/08/16 03:50:20;;;;;;;10.05;3.42;;;;;;;23.55;60.29;100830.47;5115445;28;20348;-72
2021/08/16 03:52:49;;;;;;;13.88;3.92;;;;;;;23.63;60.15;100834.63;5115050;27;20054;-71
2021/08/16 03:55:17;;;;;;;11.88;3.40;;;;;;;23.67;60.00;100832.72;5115322;27;20224;-71
2021/08/16 03:57:44;;;;;;;9.20;3.42;;;;;;;23.69;60.12;100839.81;5115553;28;20081;-71
2021/08/16 04:00:13;;;;;;;11.93;3.67;;;;;;;23.79;59.92;100830.44;5115396;28;20039;-71
2021/08/16 04:02:42;;;;;;;11.40;3.83;;;;;;;23.94;59.64;100830.78;5115011;27;20043;-71
2021/08/16 04:05:11;;;;;;;14.52;3.40;;;;;;;24.01;59.34;100838.59;5115383;28;20031;-72
2021/08/16 04:07:38;;;;;;;9.40;2.85;;;;;;;24.11;59.49;100833.69;5115403;28;20032;-71
2021/08/16 04:10:08;;;;;;;11.80;3.40;;;;;;;24.25;59.38;100842.16;5115039;27;20511;-71
2021/08/16 04:12:36;;;;;;;10.50;3.40;;;;;;;24.35;59.31;100831.91;5113509;28;20044;-72
2021/08/16 04:15:06;;;;;;;8.93;2.90;;;;;;;24.52;58.89;100835.69;5114269;28;20043;-71
2021/08/16 04:17:33;;;;;;;7.47;2.70;;;;;;;24.63;58.86;100833.41;5114820;28;20036;-71
2021/08/16 04:20:00;;;;;;;10.93;3.20;;;;;;;24.80;58.67;100829.13;5114413;28;20392;-72
2021/08/16 04:22:28;;;;;;;10.82;3.33;;;;;;;24.88;58.57;100844.06;5114393;28;20040;-70
2021/08/16 04:24:55;;;;;;;9.60;3.65;;;;;;;24.98;58.21;100841.88;5114875;27;20047;-71
2021/08/16 04:27:24;;;;;;;11.00;3.15;;;;;;;25.11;58.09;100848.53;5115149;28;20471;-72
2021/08/16 04:29:52;;;;;;;9.10;2.97;;;;;;;25.31;57.66;100847.66;5115359;28;20131;-71
2021/08/16 04:32:28;;;;;;;10.13;2.97;;;;;;;25.48;57.30;100842.38;5114525;27;20046;-71
2021/08/16 04:34:56;;;;;;;9.50;2.60;;;;;;;25.64;57.36;100854.31;5113220;28;20048;-72
2021/08/16 04:37:24;;;;;;;8.10;3.10;;;;;;;25.81;57.60;100856.22;5114010;27;20040;-72
2021/08/16 04:39:51;;;;;;;7.07;2.30;;;;;;;25.99;56.19;100851.81;5114248;28;20055;-72
2021/08/16 04:42:18;;;;;;;11.77;3.00;;;;;;;26.16;55.96;100851.91;5114469;28;20043;-72
2021/08/16 04:44:47;;;;;;;7.53;2.63;;;;;;;26.41;55.65;100851.63;5114441;28;20039;-72
2021/08/16 04:47:28;;;;;;;5.85;2.30;;;;;;;26.62;55.65;100847.88;5113994;27;20036;-71
2021/08/16 04:49:56;;;;;;;8.77;2.97;;;;;;;26.80;55.17;100844.25;5114849;27;20134;-73
2021/08/16 04:52:24;;;;;;;14.18;3.58;;;;;;;26.94;54.59;100839.03;5114364;28;20055;-72
2021/08/16 04:54:51;;;;;;;5.95;2.83;;;;;;;27.01;53.63;100845.03;5112706;28;20475;-72
2021/08/16 04:57:29;;;;;;;8.13;2.60;;;;;;;27.16;53.18;100848.78;5114565;27;20043;-73
2021/08/16 04:59:58;;;;;;;6.57;2.10;;;;;;;27.28;52.85;100846.31;5114339;28;20031;-71
2021/08/16 05:02:26;;;;;;;7.63;2.40;;;;;;;27.49;52.48;100849.72;5114252;27;20047;-72
2021/08/16 05:05:03;;;;;;;8.02;2.47;;;;;;;27.73;52.45;100843.00;5113644;27;20038;-72
2021/08/16 05:07:31;;;;;;;10.10;2.33;;;;;;;27.94;51.54;100837.38;5113825;28;20069;-72
2021/08/16 05:09:58;;;;;;;5.43;2.03;;;;;;;28.16;51.02;100847.97;5113750;28;20032;-70
2021/08/16 05:12:25;;;;;;;9.25;2.50;;;;;;;28.40;50.64;100855.59;5114272;28;20044;-72
2021/08/16 05:14:54;;;;;;;7.60;2.40;;;;;;;28.66;50.17;100847.78;5114128;27;20044;-72
2021/08/16 05:17:23;;;;;;;8.20;2.30;;;;;;;28.86;48.89;100848.41;5113844;27;20039;-73
2021/08/16 05:19:51;;;;;;;6.43;1.92;;;;;;;28.96;48.48;100850.56;5114057;28;20047;-72
2021/08/16 05:22:18;;;;;;;6.85;1.92;;;;;;;29.18;48.18;100860.09;5112283;28;20043;-72
2021/08/16 05:24:45;;;;;;;8.50;2.00;;;;;;;29.37;47.71;100856.28;5112714;28;20039;-73
2021/08/16 05:27:13;;;;;;;7.03;2.30;;;;;;;29.56;47.20;100855.06;5112165;28;20042;-73
2021/08/16 05:29:40;;;;;;;3.40;1.60;;;;;;;29.71;46.46;100856.84;5114037;27;20451;-72
2021/08/16 05:32:09;;;;;;;6.30;2.17;;;;;;;29.93;45.73;100856.38;5113557;27;20050;-73
2021/08/16 05:34:38;;;;;;;8.70;2.25;;;;;;;30.21;45.14;100854.63;5113754;28;20039;-72
2021/08/16 05:37:06;;;;;;;7.65;2.20;;;;;;;30.40;44.63;100858.78;5113625;28;20043;-76
2021/08/16 05:39:33;;;;;;;5.57;2.20;;;;;;;30.65;44.44;100863.53;5113729;27;20042;-74
2021/08/16 05:42:02;;;;;;;6.25;2.13;;;;;;;30.94;44.00;100857.97;5111029;27;20040;-76
2021/08/16 05:44:30;;;;;;;8.90;2.30;;;;;;;31.09;43.21;100856.97;5113425;27;20054;-73
2021/08/16 05:46:57;;;;;;;6.03;2.10;;;;;;;31.32;42.78;100860.84;5113668;28;20031;-75
2021/08/16 05:49:26;;;;;;;6.60;1.80;;;;;;;31.57;42.25;100856.28;5111624;28;20043;-75
2021/08/16 05:51:55;;;;;;;5.40;1.80;;;;;;;31.61;41.60;100863.31;5113129;28;20506;-75
2021/08/16 05:54:23;;;;;;;5.65;2.03;;;;;;;31.70;41.09;100855.47;5111886;28;20415;-74
2021/08/16 05:56:50;;;;;;;7.95;2.20;;;;;;;31.85;40.92;100855.22;5111184;27;20046;-76
2021/08/16 05:59:18;;;;;;;9.95;2.20;;;;;;;31.94;40.36;100867.38;5112775;27;20046;-75
2021/08/16 06:01:46;;;;;;;5.82;2.15;;;;;;;32.21;40.06;100857.22;5112672;27;20047;-76
2021/08/16 06:04:14;;;;;;;7.57;2.15;;;;;;;32.38;39.79;100865.03;5113313;28;20062;-76
2021/08/16 06:06:42;;;;;;;7.75;2.10;;;;;;;32.51;38.94;100870.47;5112741;28;20038;-75
2021/08/16 06:09:11;;;;;;;9.73;2.38;;;;;;;32.39;38.85;100865.91;5113047;28;20036;-76
2021/08/16 06:11:38;;;;;;;9.70;2.00;;;;;;;32.39;39.08;100861.31;5111364;28;20063;-75
2021/08/16 06:14:06;;;;;;;4.88;1.92;;;;;;;32.50;38.74;100868.72;5112487;28;20047;-73
2021/08/16 06:16:33;;;;;;;6.05;2.22;;;;;;;32.70;38.65;100864.53;5112594;28;20051;-74
2021/08/16 06:19:01;;;;;;;6.65;2.28;;;;;;;32.82;39.11;100863.63;5112566;27;20418;-73
2021/08/16 06:21:28;;;;;;;7.07;2.38;;;;;;;32.96;39.30;100870.75;5112726;27;20044;-70
2021/08/16 06:23:55;;;;;;;7.32;2.15;;;;;;;32.93;39.09;100871.88;5112600;27;20032;-74
2021/08/16 06:26:24;;;;;;;5.30;1.58;;;;;;;33.01;39.48;100869.44;5111889;27;20036;-74
2021/08/16 06:28:52;;;;;;;5.50;1.70;;;;;;;33.15;39.24;100871.97;5112300;28;20134;-74
2021/08/16 06:31:19;;;;;;;6.97;1.98;;;;;;;33.36;39.27;100877.69;5112587;28;20419;-74
2021/08/16 06:33:47;;;;;;;4.30;1.88;;;;;;;33.53;38.92;100871.78;5112351;27;20035;-74
2021/08/16 06:36:17;;;;;;;4.82;1.88;;;;;;;33.48;38.83;100875.84;5112532;28;20087;-75
2021/08/16 06:38:46;;;;;;;5.95;2.25;;;;;;;33.62;38.67;100870.16;5109430;28;20051;-75
2021/08/16 06:41:15;;;;;;;9.35;2.15;;;;;;;33.61;38.48;100873.91;5112243;28;20193;-73
2021/08/16 06:43:46;;;;;;;6.70;2.53;;;;;;;33.66;38.37;100879.03;5112499;28;20046;-73
2021/08/16 06:46:13;;;;;;;6.45;2.20;;;;;;;33.71;38.15;100876.84;5112483;28;20046;-73
2021/08/16 06:48:41;;;;;;;4.07;1.67;;;;;;;33.76;37.91;100889.16;5112439;28;20051;-75
2021/08/16 06:51:08;;;;;;;6.55;2.13;;;;;;;33.76;37.66;100889.16;5112528;27;20039;-74
2021/08/16 06:53:35;;;;;;;7.97;2.58;;;;;;;33.63;38.04;100894.72;5112305;28;20043;-73
2021/08/16 06:56:03;;;;;;;5.55;2.00;;;;;;;33.76;38.01;100893.75;5111895;28;20069;-73
2021/08/16 06:58:30;;;;;;;8.10;2.80;;;;;;;33.92;37.94;100889.69;5111997;28;20035;-72
2021/08/16 07:00:59;;;;;;;7.75;1.95;;;;;;;34.09;38.32;100892.94;5110808;28;20047;-73
2021/08/16 07:03:28;;;;;;;4.78;1.75;;;;;;;34.12;38.30;100893.59;5112053;28;20119;-73
2021/08/16 07:06:15;;;;;;;6.05;2.25;;;;;;;34.34;38.31;100893.59;5111606;28;20035;-73
2021/08/16 07:08:43;;;;;;;7.03;2.20;;;;;;;34.43;38.20;100888.34;5112205;28;20047;-73
2021/08/16 07:11:11;;;;;;;5.50;2.00;;;;;;;34.47;38.44;100901.69;5112095;28;20039;-73
2021/08/16 07:13:38;;;;;;;6.32;2.22;;;;;;;34.58;38.28;100898.97;5110969;28;20046;-74
2021/08/16 07:16:07;;;;;;;6.18;1.58;;;;;;;34.58;38.38;100898.97;5110929;28;20491;-74
2021/08/16 07:18:35;;;;;;;5.53;1.92;;;;;;;34.47;38.67;100895.31;5110752;28;20345;-73
2021/08/16 07:21:03;;;;;;;7.10;2.15;;;;;;;34.62;38.59;100896.81;5111142;28;20123;-73
2021/08/16 07:23:31;;;;;;;8.30;2.03;;;;;;;34.82;38.52;100895.19;5109742;28;20347;-73
2021/08/16 07:25:59;;;;;;;8.93;1.92;;;;;;;34.98;38.37;100898.41;5112176;28;20039;-74
2021/08/16 07:28:27;;;;;;;6.95;2.45;;;;;;;35.05;37.96;100908.72;5111737;28;20035;-74
2021/08/16 07:30:55;;;;;;;8.27;2.00;;;;;;;35.12;37.88;100900.81;5111889;28;20100;-74
2021/08/16 07:33:24;;;;;;;6.15;2.47;;;;;;;35.28;37.69;100901.31;5111581;28;20043;-74
2021/08/16 07:35:51;;;;;;;7.93;2.10;;;;;;;35.16;37.79;100899.59;5111508;28;20040;-72
2021/08/16 07:38:20;;;;;;;8.38;1.85;;;;;;;35.22;37.56;100912.81;5111499;28;20102;-74
2021/08/16 07:40:47;;;;;;;10.10;2.08;;;;;;;35.23;37.79;100908.19;5111639;28;20031;-74
2021/08/16 07:43:18;;;;;;;8.43;2.03;;;;;;;35.23;37.34;100900.84;5111132;28;20043;-73
2021/08/16 07:45:46;;;;;;;5.97;2.03;;;;;;;35.28;36.94;100904.06;5111453;28;20123;-73
2021/08/16 07:48:13;;;;;;;6.22;2.17;;;;;;;35.28;37.09;100903.19;5111368;28;20510;-73
2021/08/16 07:50:42;;;;;;;8.95;2.45;;;;;;;35.44;36.84;100899.00;5111627;28;20502;-74
2021/08/16 07:53:10;;;;;;;6.30;2.05;;;;;;;35.44;36.72;100909.97;5111672;28;20141;-74
2021/08/16 07:55:37;;;;;;;5.32;1.75;;;;;;;35.55;36.72;100911.78;5107269;28;20052;-74
2021/08/16 07:58:05;;;;;;;4.63;2.15;;;;;;;35.72;36.38;100907.59;5111601;28;20043;-74
2021/08/16 08:00:32;;;;;;;5.43;1.88;;;;;;;35.82;36.35;100911.28;5111723;28;20032;-74
2021/08/16 08:03:00;;;;;;;6.13;2.10;;;;;;;35.88;36.01;100919.00;5111052;28;20043;-70
2021/08/16 08:05:27;;;;;;;13.55;2.42;;;;;;;35.92;36.16;100920.47;5111717;28;20043;-72
2021/08/16 08:07:56;;;;;;;7.30;2.17;;;;;;;35.84;36.05;100921.13;5111160;28;20039;-74
2021/08/16 08:10:24;;;;;;;6.38;2.05;;;;;;;35.97;36.28;100920.94;5111562;28;20511;-74
2021/08/16 08:12:51;;;;;;;9.75;2.25;;;;;;;36.09;36.09;100922.59;5111819;28;20502;-73
2021/08/16 08:15:19;;;;;;;5.07;2.00;;;;;;;36.06;35.76;100920.13;5112845;28;20050;-74
2021/08/16 08:17:47;;;;;;;11.07;2.28;;;;;;;36.08;36.05;100918.09;5115280;27;20032;-73
2021/08/16 08:20:15;;;;;;;4.20;1.80;;;;;;;36.26;36.23;100922.00;5114786;27;20031;-73
2021/08/16 08:22:42;;;;;;;7.20;1.80;;;;;;;36.36;35.82;100923.94;5115363;28;20085;-74
2021/08/16 08:25:12;;;;;;;5.50;2.13;;;;;;;36.56;35.94;100936.75;5115164;27;20380;-74
2021/08/16 08:28:00;;;;;;;11.73;2.92;;;;;;;36.58;35.71;100929.22;5112285;28;20044;-73
2021/08/16 08:30:27;;;;;;;4.82;2.20;;;;;;;36.64;35.14;100931.41;5114827;27;20063;-73
2021/08/16 08:32:56;;;;;;;5.22;1.90;;;;;;;36.71;34.58;100929.88;5115042;27;20488;-73
2021/08/16 08:35:24;;;;;;;6.93;2.08;;;;;;;36.53;34.33;100920.50;5115108;28;20036;-73
2021/08/16 08:38:03;;;;;;;5.72;1.65;;;;;;;36.39;34.57;100929.13;5113323;27;20152;-73
2021/08/16 08:40:32;;;;;;;6.72;2.28;;;;;;;36.26;35.16;100923.88;5114780;28;20032;-71
2021/08/16 08:43:00;;;;;;;8.32;2.05;;;;;;;36.42;34.92;100924.25;5114631;28;20053;-70
2021/08/16 08:45:29;;;;;;;6.22;2.20;;;;;;;36.60;33.78;100919.81;5114888;28;20040;-73
2021/08/16 08:47:56;;;;;;;5.78;1.77;;;;;;;36.73;33.64;100911.34;5114876;27;20040;-74
2021/08/16 08:50:24;;;;;;;10.88;1.98;;;;;;;36.84;33.97;100918.59;5113860;28;20051;-73
2021/08/16 08:52:54;;;;;;;5.80;1.85;;;;;;;36.95;34.06;100911.13;5113848;27;20050;-74
2021/08/16 08:55:21;;;;;;;7.93;2.08;;;;;;;37.04;33.52;100913.00;5113548;28;20050;-74
2021/08/16 08:57:50;;;;;;;5.93;1.70;;;;;;;37.03;33.75;100924.16;5113729;28;20048;-74
2021/08/16 09:00:19;;;;;;;6.30;2.15;;;;;;;37.05;33.83;100911.97;5112625;28;20047;-74
2021/08/16 09:02:56;;;;;;;9.35;1.92;;;;;;;37.11;34.26;100908.69;5113486;27;20127;-74
2021/08/16 09:05:24;;;;;;;9.35;2.13;;;;;;;36.95;34.41;100916.63;5114538;28;20039;-74
2021/08/16 09:07:54;;;;;;;7.70;1.80;;;;;;;36.98;33.85;100913.56;5112731;28;20101;-74
2021/08/16 09:10:22;;;;;;;6.88;1.58;;;;;;;37.18;32.68;100920.00;5112764;28;20046;-74
2021/08/16 09:12:51;;;;;;;7.15;1.98;;;;;;;37.21;32.52;100910.59;5113990;28;20481;-74
2021/08/16 09:15:20;;;;;;;6.88;1.65;;;;;;;37.09;32.42;100894.16;5114718;28;20046;-74
2021/08/16 09:17:48;;;;;;;6.22;1.52;;;;;;;36.96;32.64;100896.31;5111620;28;20039;-74
2021/08/16 09:20:18;;;;;;;4.95;1.80;;;;;;;36.74;33.27;100891.06;5113933;27;20047;-74
2021/08/16 09:22:56;;;;;;;7.03;1.90;;;;;;;36.80;33.97;100906.16;5114086;27;20036;-74
2021/08/16 09:25:24;;;;;;;7.50;1.77;;;;;;;36.87;33.78;100891.69;5113558;28;20093;-74
2021/08/16 09:27:53;;;;;;;7.38;2.45;;;;;;;36.97;33.36;100892.53;5114211;27;20039;-74
2021/08/16 09:30:31;;;;;;;8.02;1.80;;;;;;;37.06;33.64;100890.81;5114232;28;20047;-74
2021/08/16 09:32:59;;;;;;;9.10;1.70;;;;;;;37.22;33.10;100893.06;5112442;27;20080;-74
2021/08/16 09:35:26;;;;;;;6.25;1.60;;;;;;;37.12;32.92;100890.28;5113925;27;20035;-74
2021/08/16 09:37:57;;;;;;;7.57;2.08;;;;;;;37.08;33.41;100880.53;5111092;27;20063;-69
2021/08/16 09:40:24;;;;;;;8.55;1.85;;;;;;;36.93;33.29;100873.72;5113565;28;20432;-72
2021/08/16 09:42:55;;;;;;;5.28;1.63;;;;;;;36.85;33.22;100890.06;5113712;27;20040;-72
2021/08/16 09:45:30;;;;;;;4.43;1.70;;;;;;;36.79;33.47;100876.88;5113561;27;20040;-72
2021/08/16 09:47:59;;;;;;;4.72;1.55;;;;;;;36.61;32.38;100885.78;5113942;28;20043;-72
2021/08/16 09:50:41;;;;;;;7.32;1.83;;;;;;;36.69;32.21;100874.13;5113026;28;20096;-71
2021/08/16 09:53:10;;;;;;;5.60;1.90;;;;;;;36.60;32.41;100874.91;5113041;27;20048;-72
2021/08/16 09:55:41;;;;;;;4.25;1.63;;;;;;;36.52;32.12;100880.25;5113077;27;20036;-70
2021/08/16 09:58:13;;;;;;;8.10;2.20;;;;;;;36.33;32.99;100878.31;5111914;28;20044;-71
2021/08/16 10:00:41;;;;;;;4.57;1.50;;;;;;;36.28;33.02;100870.47;5113582;28;20035;-73
2021/08/16 10:03:11;;;;;;;7.10;1.95;;;;;;;36.24;32.86;100879.13;5112437;28;20035;-73
2021/08/16 10:05:40;;;;;;;5.78;1.98;;;;;;;36.29;32.52;100874.97;5112775;27;20110;-71
2021/08/16 10:08:09;;;;;;;6.35;1.73;;;;;;;36.19;33.16;100876.78;5112949;28;20058;-74
2021/08/16 10:10:38;;;;;;;7.22;1.98;;;;;;;36.11;33.53;100871.06;5112726;27;20046;-72
2021/08/16 10:13:07;;;;;;;6.03;1.67;;;;;;;35.98;34.26;100867.69;5110370;28;20145;-69
2021/08/16 10:15:40;;;;;;;6.18;1.90;;;;;;;35.61;35.19;100867.28;5112438;28;20044;-68
2021/08/16 10:18:14;;;;;;;6.50;1.77;;;;;;;35.31;35.75;100872.72;5112554;28;20047;-68
2021/08/16 10:20:42;;;;;;;5.32;1.80;;;;;;;35.38;35.90;100863.78;5113050;28;20039;-70
2021/08/16 10:23:17;;;;;;;7.93;2.00;;;;;;;35.56;35.41;100864.97;5112914;28;20051;-69
2021/08/16 10:25:47;;;;;;;6.40;1.48;;;;;;;35.51;35.17;100858.97;5112847;27;20488;-69
2021/08/16 10:28:25;;;;;;;6.35;1.90;;;;;;;35.39;35.68;100870.16;5112844;28;20044;-69
2021/08/16 10:30:55;;;;;;;4.72;1.45;;;;;;;35.35;35.76;100860.44;5112669;28;20043;-70
2021/08/16 10:33:23;;;;;;;5.45;2.22;;;;;;;34.88;37.06;100854.38;5112758;28;20035;-70
2021/08/16 10:35:51;;;;;;;4.57;1.60;;;;;;;35.13;36.67;100862.25;5111318;27;20035;-67
2021/08/16 10:38:20;;;;;;;5.88;2.30;;;;;;;35.19;36.55;100861.72;5112428;28;20406;-69
2021/08/16 10:40:53;;;;;;;9.45;1.73;;;;;;;35.24;36.92;100855.91;5112324;28;20035;-73
2021/08/16 10:43:22;;;;;;;6.50;1.65;;;;;;;35.32;36.58;100852.47;5112389;27;20365;-73
2021/08/16 10:45:51;;;;;;;4.72;2.08;;;;;;;35.34;35.98;100845.84;5112295;28;20070;-74
2021/08/16 10:48:26;;;;;;;5.35;1.60;;;;;;;35.11;36.27;100849.69;5109116;28;20040;-71
2021/08/16 10:51:05;;;;;;;5.82;1.50;;;;;;;34.97;36.80;100839.88;5112247;27;20046;-73
2021/08/16 10:53:33;;;;;;;4.65;1.52;;;;;;;34.97;36.79;100856.34;5112180;28;20043;-73
2021/08/16 10:56:01;;;;;;;8.07;1.73;;;;;;;35.10;36.77;100847.94;5112609;28;20036;-74
2021/08/16 10:58:28;;;;;;;6.20;2.00;;;;;;;34.90;37.50;100854.25;5112326;28;20050;-74
2021/08/16 11:01:27;;;;;;;8.95;2.00;;;;;;;34.95;37.25;100846.50;5110769;28;20498;-75
2021/08/16 11:04:01;;;;;;;9.25;1.85;;;;;;;34.85;37.38;100843.69;5111996;28;20043;-73
2021/08/16 11:06:29;;;;;;;6.70;1.80;;;;;;;34.79;37.61;100853.28;5112298;27;20046;-74
2021/08/16 11:08:58;;;;;;;6.43;1.70;;;;;;;34.97;36.98;100856.34;5112083;28;20040;-74
2021/08/16 11:11:25;;;;;;;5.63;1.65;;;;;;;34.97;37.14;100850.00;5112283;28;20500;-74
2021/08/16 11:14:06;;;;;;;3.50;1.63;;;;;;;35.15;36.91;100849.28;5109960;28;20115;-74
2021/08/16 11:16:33;;;;;;;8.48;2.10;;;;;;;35.41;36.22;100847.06;5111404;28;20098;-72
2021/08/16 11:19:02;;;;;;;7.82;1.63;;;;;;;35.53;35.69;100837.75;5111518;28;20042;-74
2021/08/16 11:21:30;;;;;;;5.90;1.88;;;;;;;35.68;35.32;100851.13;5111970;28;20435;-73
2021/08/16 11:23:58;;;;;;;7.68;1.95;;;;;;;35.79;34.99;100853.84;5111194;28;20062;-73
2021/08/16 11:26:28;;;;;;;4.00;1.33;;;;;;;35.93;34.54;100850.72;5110642;28;20101;-72
2021/08/16 11:29:04;;;;;;;6.60;1.73;;;;;;;36.02;34.12;100838.03;5111824;28;20400;-71
2021/08/16 11:31:52;;;;;;;4.85;1.70;;;;;;;36.15;34.25;100845.06;5110725;28;20036;-73